createdAt,value
2018-12-04T00:00:46.097Z,990.91
2018-12-04T00:01:46.085Z,990.94
2018-12-04T00:02:46.073Z,990.90
2018-12-04T00:03:46.067Z,990.92
2018-12-04T00:04:46.053Z,991.01
2018-12-04T00:05:46.038Z,990.98
2018-12-04T00:06:46.030Z,991.05
2018-12-04T00:07:46.021Z,991.04
2018-12-04T00:08:46.007Z,991.04
2018-12-04T00:09:45.997Z,991.13
2018-12-04T00:10:45.987Z,991.12
2018-12-04T00:11:45.975Z,991.16
2018-12-04T00:12:45.966Z,991.12
2018-12-04T00:13:45.955Z,991.18
2018-12-04T00:14:45.941Z,991.19
2018-12-04T00:15:45.938Z,991.16
2018-12-04T00:16:45.923Z,991.19
2018-12-04T00:17:45.909Z,991.25
2018-12-04T00:18:45.900Z,991.28
2018-12-04T00:19:45.891Z,991.35
2018-12-04T00:20:45.882Z,991.33
2018-12-04T00:21:45.868Z,991.29
2018-12-04T00:22:45.856Z,991.42
2018-12-04T00:23:45.845Z,991.41
2018-12-04T00:24:45.833Z,991.40
2018-12-04T00:25:45.824Z,991.41
2018-12-04T00:26:45.814Z,991.46
2018-12-04T00:27:45.801Z,991.47
2018-12-04T00:28:45.795Z,991.44
2018-12-04T00:29:45.780Z,991.50
2018-12-04T00:30:45.769Z,991.53
2018-12-04T00:31:45.760Z,991.59
2018-12-04T00:32:45.749Z,991.54
2018-12-04T00:33:45.737Z,991.52
2018-12-04T00:34:45.730Z,991.58
2018-12-04T00:35:45.720Z,991.64
2018-12-04T00:36:45.706Z,991.66
2018-12-04T00:37:45.694Z,991.71
2018-12-04T00:38:45.683Z,991.76
2018-12-04T00:39:45.672Z,991.65
2018-12-04T00:40:45.663Z,991.78
2018-12-04T00:41:45.650Z,991.76
2018-12-04T00:42:45.639Z,991.86
2018-12-04T00:43:45.629Z,991.89
2018-12-04T00:44:45.620Z,991.96
2018-12-04T00:45:45.608Z,992.01
2018-12-04T00:46:45.598Z,992.00
2018-12-04T00:47:45.585Z,992.05
2018-12-04T00:48:45.574Z,992.07
2018-12-04T00:49:45.562Z,992.15
2018-12-04T00:50:45.553Z,992.10
2018-12-04T00:51:45.543Z,992.08
2018-12-04T00:52:45.536Z,992.16
2018-12-04T00:53:45.521Z,992.23
2018-12-04T00:54:45.511Z,992.21
2018-12-04T00:55:45.499Z,992.28
2018-12-04T00:56:45.489Z,992.35
2018-12-04T00:57:45.477Z,992.40
2018-12-04T00:58:45.469Z,992.43
2018-12-04T00:59:45.456Z,992.45
2018-12-04T01:00:45.450Z,992.52
2018-12-04T01:01:45.435Z,992.54
2018-12-04T01:02:45.423Z,992.57
2018-12-04T01:03:45.415Z,992.58
2018-12-04T01:04:45.402Z,992.67
2018-12-04T01:05:45.390Z,992.69
2018-12-04T01:06:45.379Z,992.72
2018-12-04T01:07:45.368Z,992.70
2018-12-04T01:08:45.359Z,992.74
2018-12-04T01:09:45.347Z,992.78
2018-12-04T01:10:45.337Z,992.84
2018-12-04T01:11:45.329Z,992.81
2018-12-04T01:12:45.315Z,992.89
2018-12-04T01:13:45.305Z,992.87
2018-12-04T01:14:45.293Z,992.90
2018-12-04T01:15:45.285Z,992.95
2018-12-04T01:16:45.280Z,993.10
2018-12-04T01:17:45.263Z,993.03
2018-12-04T01:18:45.252Z,993.11
2018-12-04T01:19:45.241Z,993.20
2018-12-04T01:20:45.229Z,993.16
2018-12-04T01:21:45.219Z,993.21
2018-12-04T01:22:45.209Z,993.26
2018-12-04T01:23:45.198Z,993.34
2018-12-04T01:24:45.188Z,993.44
2018-12-04T01:25:45.177Z,993.33
2018-12-04T01:26:45.168Z,993.44
2018-12-04T01:27:45.153Z,993.63
2018-12-04T01:28:45.143Z,993.60
2018-12-04T01:29:45.131Z,993.55
2018-12-04T01:30:45.120Z,993.74
2018-12-04T01:31:45.109Z,993.75
2018-12-04T01:32:45.099Z,993.73
2018-12-04T01:33:45.094Z,993.83
2018-12-04T01:39:00.301Z,994.02
2018-12-04T01:40:00.289Z,994.13
2018-12-04T01:41:00.277Z,994.09
2018-12-04T01:42:00.268Z,994.21
2018-12-04T01:43:00.256Z,994.16
2018-12-04T01:44:00.244Z,994.23
2018-12-04T01:45:00.246Z,994.30
2018-12-04T01:46:00.223Z,994.26
2018-12-04T01:47:00.211Z,994.33
2018-12-04T01:48:00.201Z,994.34
2018-12-04T01:49:00.190Z,994.36
2018-12-04T01:50:00.178Z,994.43
2018-12-04T01:51:00.166Z,994.48
2018-12-04T01:52:00.156Z,994.54
2018-12-04T01:53:00.146Z,994.60
2018-12-04T01:54:00.134Z,994.59
2018-12-04T01:55:00.123Z,994.65
2018-12-04T01:56:00.112Z,994.68
2018-12-04T01:57:00.102Z,994.66
2018-12-04T01:58:00.089Z,994.72
2018-12-04T01:59:00.080Z,994.78
2018-12-04T02:00:00.068Z,994.79
2018-12-04T02:01:00.057Z,994.82
2018-12-04T02:02:00.048Z,994.87
2018-12-04T02:03:00.035Z,994.86
2018-12-04T02:04:00.025Z,994.88
2018-12-04T02:05:00.015Z,994.96
2018-12-04T02:06:00.004Z,995.02
2018-12-04T02:06:59.990Z,995.00
2018-12-04T02:07:59.982Z,995.03
2018-12-04T02:08:59.969Z,995.07
2018-12-04T02:09:59.961Z,995.08
2018-12-04T02:10:59.973Z,995.03
2018-12-04T02:11:59.943Z,995.12
2018-12-04T02:12:59.926Z,995.03
2018-12-04T02:13:59.924Z,995.04
2018-12-04T02:14:59.902Z,995.09
2018-12-04T02:15:59.893Z,995.12
2018-12-04T02:16:59.880Z,995.20
2018-12-04T02:17:59.870Z,995.19
2018-12-04T02:18:59.859Z,995.26
2018-12-04T02:19:59.849Z,995.26
2018-12-04T02:20:59.838Z,995.19
2018-12-04T02:21:59.828Z,995.26
2018-12-04T02:22:59.817Z,995.24
2018-12-04T02:23:59.808Z,995.28
2018-12-04T02:24:59.800Z,995.25
2018-12-04T02:25:59.784Z,995.28
2018-12-04T02:26:59.772Z,995.25
2018-12-04T02:27:59.761Z,995.28
2018-12-04T02:28:59.753Z,995.30
2018-12-04T02:29:59.741Z,995.37
2018-12-04T02:30:59.735Z,995.38
2018-12-04T02:31:59.719Z,995.39
2018-12-04T02:32:59.709Z,995.38
2018-12-04T02:33:59.696Z,995.47
2018-12-04T02:34:59.687Z,995.49
2018-12-04T02:35:59.679Z,995.48
2018-12-04T02:36:59.665Z,995.57
2018-12-04T02:37:59.657Z,995.56
2018-12-04T02:38:59.644Z,995.61
2018-12-04T02:39:59.632Z,995.60
2018-12-04T02:40:59.621Z,995.64
2018-12-04T02:41:59.610Z,995.66
2018-12-04T02:42:59.601Z,995.65
2018-12-04T02:43:59.589Z,995.70
2018-12-04T02:44:59.589Z,995.68
2018-12-04T02:45:59.570Z,995.73
2018-12-04T02:46:59.555Z,995.69
2018-12-04T02:47:59.546Z,995.66
2018-12-04T02:48:59.533Z,995.65
2018-12-04T02:49:59.526Z,995.65
2018-12-04T02:50:59.510Z,995.70
2018-12-04T02:51:59.499Z,995.75
2018-12-04T02:52:59.490Z,995.75
2018-12-04T02:53:59.480Z,995.82
2018-12-04T02:54:59.470Z,995.80
2018-12-04T02:55:59.459Z,995.78
2018-12-04T02:56:59.451Z,995.78
2018-12-04T02:57:59.440Z,995.82
2018-12-04T02:58:59.424Z,995.75
2018-12-04T02:59:59.414Z,995.80
2018-12-04T03:00:59.410Z,995.77
2018-12-04T03:01:59.402Z,995.80
2018-12-04T03:02:59.381Z,995.83
2018-12-04T03:03:59.377Z,995.85
2018-12-04T03:04:59.363Z,995.83
2018-12-04T03:05:59.350Z,995.85
2018-12-04T03:06:59.340Z,995.93
2018-12-04T03:07:59.327Z,995.91
2018-12-04T03:08:59.318Z,995.94
2018-12-04T03:09:59.306Z,996.02
2018-12-04T03:10:59.297Z,996.05
2018-12-04T03:11:59.287Z,996.10
2018-12-04T03:12:59.273Z,996.11
2018-12-04T03:13:59.274Z,996.09
2018-12-04T03:14:59.258Z,996.17
2018-12-04T03:15:59.241Z,996.19
2018-12-04T03:16:59.232Z,996.21
2018-12-04T03:17:59.222Z,996.21
2018-12-04T03:18:59.208Z,996.22
2018-12-04T03:19:59.199Z,996.31
2018-12-04T03:20:59.187Z,996.32
2018-12-04T03:21:59.177Z,996.31
2018-12-04T03:22:59.166Z,996.30
2018-12-04T03:23:59.154Z,996.26
2018-12-04T03:24:59.244Z,996.31
2018-12-04T03:25:59.141Z,996.34
2018-12-04T03:26:59.120Z,996.35
2018-12-04T03:27:59.110Z,996.40
2018-12-04T03:28:59.099Z,996.38
2018-12-04T03:29:59.092Z,996.38
2018-12-04T03:30:59.080Z,996.41
2018-12-04T03:31:59.068Z,996.43
2018-12-04T03:32:59.057Z,996.42
2018-12-04T03:33:59.046Z,996.45
2018-12-04T03:34:59.036Z,996.52
2018-12-04T03:35:59.025Z,996.51
2018-12-04T03:36:59.016Z,996.52
2018-12-04T03:37:59.004Z,996.61
2018-12-04T03:38:58.993Z,996.58
2018-12-04T03:39:58.984Z,996.59
2018-12-04T03:40:58.970Z,996.63
2018-12-04T03:41:58.960Z,996.67
2018-12-04T03:42:58.949Z,996.72
2018-12-04T03:43:58.936Z,996.76
2018-12-04T03:44:58.928Z,996.76
2018-12-04T03:45:58.917Z,996.81
2018-12-04T03:46:58.904Z,996.86
2018-12-04T03:47:58.892Z,996.83
2018-12-04T03:48:58.884Z,996.85
2018-12-04T03:49:58.871Z,996.86
2018-12-04T03:50:58.868Z,996.91
2018-12-04T03:51:58.851Z,996.92
2018-12-04T03:52:58.840Z,996.91
2018-12-04T03:53:58.829Z,996.98
2018-12-04T03:54:58.819Z,996.90
2018-12-04T03:55:58.818Z,996.96
2018-12-04T03:56:58.797Z,996.96
2018-12-04T03:57:58.784Z,997.00
2018-12-04T03:58:58.776Z,997.00
2018-12-04T03:59:58.764Z,997.05
2018-12-04T04:00:58.754Z,997.07
2018-12-04T04:01:58.741Z,997.13
2018-12-04T04:02:58.734Z,997.12
2018-12-04T04:03:58.720Z,997.18
2018-12-04T04:04:58.712Z,997.21
2018-12-04T04:05:58.698Z,997.25
2018-12-04T04:06:58.692Z,997.26
2018-12-04T04:07:58.678Z,997.32
2018-12-04T04:08:58.665Z,997.26
2018-12-04T04:09:58.656Z,997.34
2018-12-04T04:10:58.647Z,997.30
2018-12-04T04:11:58.634Z,997.34
2018-12-04T04:12:58.625Z,997.39
2018-12-04T04:13:58.611Z,997.39
2018-12-04T04:14:58.605Z,997.41
2018-12-04T04:15:58.606Z,997.44
2018-12-04T04:16:58.581Z,997.47
2018-12-04T04:17:58.571Z,997.46
2018-12-04T04:18:58.558Z,997.51
2018-12-04T04:19:58.546Z,997.52
2018-12-04T04:20:58.536Z,997.55
2018-12-04T04:21:58.531Z,997.57
2018-12-04T04:22:58.512Z,997.56
2018-12-04T04:23:58.508Z,997.58
2018-12-04T04:24:58.491Z,997.56
2018-12-04T04:25:58.484Z,997.56
2018-12-04T04:26:58.472Z,997.59
2018-12-04T04:27:58.459Z,997.55
2018-12-04T04:28:58.450Z,997.54
2018-12-04T04:29:58.438Z,997.55
2018-12-04T04:30:58.427Z,997.58
2018-12-04T04:31:58.417Z,997.64
2018-12-04T04:32:58.408Z,997.64
2018-12-04T04:33:58.396Z,997.64
2018-12-04T04:34:58.386Z,997.66
2018-12-04T04:35:58.385Z,997.72
2018-12-04T04:36:58.361Z,997.73
2018-12-04T04:37:58.352Z,997.74
2018-12-04T04:38:58.346Z,997.72
2018-12-04T04:39:58.331Z,997.76
2018-12-04T04:40:58.317Z,997.81
2018-12-04T04:41:58.309Z,997.80
2018-12-04T04:42:58.297Z,997.80
2018-12-04T04:43:58.291Z,997.89
2018-12-04T04:44:58.277Z,997.90
2018-12-04T04:45:58.270Z,997.91
2018-12-04T04:46:58.256Z,997.88
2018-12-04T04:47:58.245Z,997.92
2018-12-04T04:48:58.342Z,997.92
2018-12-04T04:49:58.224Z,997.89
2018-12-04T04:50:58.211Z,997.98
2018-12-04T04:51:58.199Z,998.01
2018-12-04T04:52:58.189Z,997.97
2018-12-04T04:53:58.185Z,997.94
2018-12-04T04:54:58.167Z,997.98
2018-12-04T04:55:58.157Z,997.90
2018-12-04T04:56:58.145Z,997.95
2018-12-04T04:57:58.137Z,998.00
2018-12-04T04:58:58.127Z,998.01
2018-12-04T04:59:58.117Z,998.05
2018-12-04T05:00:58.103Z,998.03
2018-12-04T05:01:58.095Z,998.08
2018-12-04T05:02:58.083Z,998.07
2018-12-04T05:03:58.068Z,998.09
2018-12-04T05:04:58.058Z,998.16
2018-12-04T05:05:58.049Z,998.16
2018-12-04T05:06:58.037Z,998.19
2018-12-04T05:07:58.029Z,998.19
2018-12-04T05:08:58.015Z,998.26
2018-12-04T05:09:58.006Z,998.18
2018-12-04T05:10:57.995Z,998.21
2018-12-04T05:11:57.986Z,998.19
2018-12-04T05:12:57.973Z,998.24
2018-12-04T05:13:57.961Z,998.26
2018-12-04T05:14:57.949Z,998.29
2018-12-04T05:15:57.940Z,998.35
2018-12-04T05:16:57.930Z,998.38
2018-12-04T05:17:57.919Z,998.43
2018-12-04T05:18:57.910Z,998.42
2018-12-04T05:19:57.897Z,998.50
2018-12-04T05:20:57.885Z,998.54
2018-12-04T05:21:57.873Z,998.57
2018-12-04T05:22:57.864Z,998.62
2018-12-04T05:23:57.854Z,998.61
2018-12-04T05:24:57.856Z,998.68
2018-12-04T05:25:57.833Z,998.71
2018-12-04T05:26:57.821Z,998.68
2018-12-04T05:27:57.810Z,998.72
2018-12-04T05:28:57.797Z,998.77
2018-12-04T05:29:57.788Z,998.82
2018-12-04T05:30:57.779Z,998.80
2018-12-04T05:31:57.767Z,998.85
2018-12-04T05:32:57.758Z,998.84
2018-12-04T05:33:57.747Z,998.90
2018-12-04T05:34:57.735Z,998.90
2018-12-04T05:35:57.724Z,998.88
2018-12-04T05:36:57.713Z,998.90
2018-12-04T05:37:57.701Z,998.87
2018-12-04T05:38:57.694Z,998.88
2018-12-04T05:39:57.680Z,998.86
2018-12-04T05:40:57.670Z,998.87
2018-12-04T05:41:57.658Z,998.89
2018-12-04T05:42:57.646Z,998.87
2018-12-04T05:43:57.635Z,998.89
2018-12-04T05:44:57.629Z,998.96
2018-12-04T05:45:57.615Z,999.02
2018-12-04T05:46:57.604Z,999.05
2018-12-04T05:47:57.597Z,999.07
2018-12-04T05:48:57.585Z,999.08
2018-12-04T05:49:57.573Z,999.12
2018-12-04T05:50:57.560Z,999.09
2018-12-04T05:51:57.550Z,999.07
2018-12-04T05:52:57.540Z,999.07
2018-12-04T05:53:57.529Z,999.03
2018-12-04T05:54:57.516Z,999.07
2018-12-04T05:55:57.508Z,999.13
2018-12-04T05:56:57.497Z,999.10
2018-12-04T05:57:57.486Z,999.17
2018-12-04T05:58:57.472Z,999.19
2018-12-04T05:59:57.468Z,999.22
2018-12-04T06:00:57.452Z,999.25
2018-12-04T06:01:57.448Z,999.27
2018-12-04T06:02:57.428Z,999.31
2018-12-04T06:03:57.418Z,999.28
2018-12-04T06:04:57.415Z,999.27
2018-12-04T06:05:57.397Z,999.28
2018-12-04T06:06:57.386Z,999.30
2018-12-04T06:07:57.374Z,999.32
2018-12-04T06:08:57.365Z,999.34
2018-12-04T06:09:57.354Z,999.38
2018-12-04T06:10:57.344Z,999.41
2018-12-04T06:11:57.359Z,999.43
2018-12-04T06:12:57.321Z,999.42
2018-12-04T06:13:57.313Z,999.44
2018-12-04T06:14:57.300Z,999.49
2018-12-04T06:15:57.289Z,999.47
2018-12-04T06:16:57.281Z,999.55
2018-12-04T06:17:57.268Z,999.57
2018-12-04T06:18:57.258Z,999.55
2018-12-04T06:19:57.246Z,999.58
2018-12-04T06:20:57.236Z,999.62
2018-12-04T06:21:57.224Z,999.65
2018-12-04T06:22:57.214Z,999.73
2018-12-04T06:23:57.204Z,999.73
2018-12-04T06:24:57.190Z,999.76
2018-12-04T06:25:57.180Z,999.82
2018-12-04T06:26:57.169Z,999.87
2018-12-04T06:27:57.158Z,999.90
2018-12-04T06:28:57.148Z,999.88
2018-12-04T06:29:57.139Z,999.91
2018-12-04T06:30:57.126Z,999.92
2018-12-04T06:31:57.115Z,1000.00
2018-12-04T06:32:57.104Z,1000.03
2018-12-04T06:33:57.092Z,1000.04
2018-12-04T06:34:57.086Z,1000.01
2018-12-04T06:35:57.075Z,1000.05
2018-12-04T06:36:57.059Z,1000.09
2018-12-04T06:37:57.048Z,1000.13
2018-12-04T06:38:57.039Z,1000.18
2018-12-04T06:39:57.028Z,1000.17
2018-12-04T06:40:57.016Z,1000.13
2018-12-04T06:41:57.003Z,1000.22
2018-12-04T06:42:56.992Z,1000.18
2018-12-04T06:43:56.982Z,1000.17
2018-12-04T06:44:56.972Z,1000.20
2018-12-04T06:45:56.962Z,1000.27
2018-12-04T06:46:56.955Z,1000.27
2018-12-04T06:47:56.938Z,1000.34
2018-12-04T06:48:56.932Z,1000.36
2018-12-04T06:49:56.919Z,1000.32
2018-12-04T06:50:56.905Z,1000.42
2018-12-04T06:51:56.894Z,1000.39
2018-12-04T06:52:56.889Z,1000.42
2018-12-04T06:53:56.875Z,1000.47
2018-12-04T06:54:56.863Z,1000.51
2018-12-04T06:55:56.853Z,1000.55
2018-12-04T06:56:56.851Z,1000.54
2018-12-04T06:57:56.833Z,1000.60
2018-12-04T06:58:56.820Z,1000.66
2018-12-04T06:59:56.811Z,1000.66
2018-12-04T07:00:56.800Z,1000.65
2018-12-04T07:01:56.786Z,1000.69
2018-12-04T07:02:56.793Z,1000.72
2018-12-04T07:03:56.765Z,1000.71
2018-12-04T07:04:56.757Z,1000.73
2018-12-04T07:05:56.744Z,1000.81
2018-12-04T07:06:56.735Z,1000.79
2018-12-04T07:07:56.723Z,1000.84
2018-12-04T07:08:56.709Z,1000.86
2018-12-04T07:09:56.702Z,1000.87
2018-12-04T07:10:56.690Z,1000.88
2018-12-04T07:12:02.331Z,1000.97
2018-12-04T07:13:17.850Z,1000.99
2018-12-04T07:14:17.837Z,1000.96
2018-12-04T07:15:17.826Z,1001.07
2018-12-04T07:16:17.817Z,1001.06
2018-12-04T07:17:18.544Z,1001.09
2018-12-04T07:18:17.794Z,1001.09
2018-12-04T07:19:17.784Z,1001.08
2018-12-04T07:20:17.775Z,1001.12
2018-12-04T07:21:17.760Z,1001.08
2018-12-04T07:22:17.751Z,1001.11
2018-12-04T07:23:17.739Z,1001.14
2018-12-04T07:24:17.726Z,1001.19
2018-12-04T07:25:17.717Z,1001.20
2018-12-04T07:26:17.705Z,1001.18
2018-12-04T07:27:17.693Z,1001.23
2018-12-04T07:28:17.682Z,1001.22
2018-12-04T07:29:17.670Z,1001.24
2018-12-04T07:30:17.664Z,1001.28
2018-12-04T07:31:17.651Z,1001.24
2018-12-04T07:32:17.638Z,1001.34
2018-12-04T07:33:17.627Z,1001.36
2018-12-04T07:34:17.615Z,1001.37
2018-12-04T07:35:17.604Z,1001.39
2018-12-04T07:36:17.595Z,1001.44
2018-12-04T07:37:17.582Z,1001.45
2018-12-04T07:38:17.571Z,1001.44
2018-12-04T07:39:17.561Z,1001.50
2018-12-04T07:40:17.550Z,1001.52
2018-12-04T07:41:17.547Z,1001.56
2018-12-04T07:42:17.527Z,1001.59
2018-12-04T07:43:17.514Z,1001.62
2018-12-04T07:44:17.506Z,1001.59
2018-12-04T07:45:17.491Z,1001.65
2018-12-04T07:46:17.482Z,1001.71
2018-12-04T07:47:17.474Z,1001.72
2018-12-04T07:48:17.458Z,1001.70
2018-12-04T07:49:17.447Z,1001.75
2018-12-04T07:50:17.439Z,1001.79
2018-12-04T07:51:17.427Z,1001.81
2018-12-04T07:52:17.414Z,1001.83
2018-12-04T07:53:17.403Z,1001.84
2018-12-04T07:54:17.393Z,1001.86
2018-12-04T07:55:17.383Z,1001.90
2018-12-04T07:56:17.372Z,1001.95
2018-12-04T07:57:17.359Z,1001.87
2018-12-04T07:58:17.350Z,1001.97
2018-12-04T07:59:17.338Z,1001.98
2018-12-04T08:00:17.328Z,1002.03
2018-12-04T08:01:17.315Z,1002.07
2018-12-04T08:02:17.303Z,1002.08
2018-12-04T08:03:17.294Z,1002.18
2018-12-04T08:04:17.284Z,1002.17
2018-12-04T08:05:17.269Z,1002.19
2018-12-04T08:06:17.259Z,1002.20
2018-12-04T08:07:17.250Z,1002.25
2018-12-04T08:08:17.240Z,1002.25
2018-12-04T08:09:17.229Z,1002.31
2018-12-04T08:10:17.217Z,1002.39
2018-12-04T08:11:17.209Z,1002.41
2018-12-04T08:12:17.198Z,1002.42
2018-12-04T08:13:17.183Z,1002.44
2018-12-04T08:14:17.173Z,1002.44
2018-12-04T08:15:17.158Z,1002.49
2018-12-04T08:16:17.148Z,1002.53
2018-12-04T08:17:17.164Z,1002.55
2018-12-04T08:18:17.126Z,1002.60
2018-12-04T08:19:17.114Z,1002.60
2018-12-04T08:20:17.105Z,1002.66
2018-12-04T08:21:17.092Z,1002.68
2018-12-04T08:22:17.091Z,1002.68
2018-12-04T08:23:17.068Z,1002.73
2018-12-04T08:24:17.059Z,1002.73
2018-12-04T08:25:17.050Z,1002.76
2018-12-04T08:26:17.036Z,1002.78
2018-12-04T08:27:17.026Z,1002.77
2018-12-04T08:28:17.016Z,1002.82
2018-12-04T08:29:17.009Z,1002.84
2018-12-04T08:30:16.994Z,1002.89
2018-12-04T08:31:16.983Z,1002.93
2018-12-04T08:32:16.970Z,1002.92
2018-12-04T08:33:16.958Z,1002.93
2018-12-04T08:34:16.947Z,1002.92
2018-12-04T08:35:16.937Z,1002.94
2018-12-04T08:36:16.926Z,1002.96
2018-12-04T08:37:16.916Z,1002.97
2018-12-04T08:38:16.906Z,1002.96
2018-12-04T08:39:16.893Z,1002.99
2018-12-04T08:40:16.882Z,1003.02
2018-12-04T08:41:16.871Z,1003.01
2018-12-04T08:42:16.859Z,1003.03
2018-12-04T08:43:16.848Z,1003.01
2018-12-04T08:44:16.837Z,1003.02
2018-12-04T08:45:16.829Z,1003.05
2018-12-04T08:46:16.815Z,1003.08
2018-12-04T08:47:16.803Z,1003.07
2018-12-04T08:48:16.793Z,1003.14
2018-12-04T08:49:16.783Z,1003.11
2018-12-04T08:50:16.770Z,1003.16
2018-12-04T08:51:16.759Z,1003.13
2018-12-04T08:52:16.750Z,1003.12
2018-12-04T08:53:16.739Z,1003.17
2018-12-04T08:54:16.725Z,1003.14
2018-12-04T08:55:16.715Z,1003.20
2018-12-04T08:56:16.705Z,1003.19
2018-12-04T08:57:16.693Z,1003.18
2018-12-04T08:58:16.682Z,1003.20
2018-12-04T08:59:16.671Z,1003.28
2018-12-04T09:00:16.660Z,1003.25
2018-12-04T09:01:16.647Z,1003.33
2018-12-04T09:02:16.638Z,1003.34
2018-12-04T09:03:16.627Z,1003.38
2018-12-04T09:04:16.618Z,1003.42
2018-12-04T09:05:16.702Z,1003.47
2018-12-04T09:06:16.595Z,1003.50
2018-12-04T09:07:16.582Z,1003.52
2018-12-04T09:08:16.601Z,1003.59
2018-12-04T09:09:16.563Z,1003.60
2018-12-04T09:10:16.551Z,1003.62
2018-12-04T09:11:16.542Z,1003.64
2018-12-04T09:12:16.528Z,1003.64
2018-12-04T09:13:16.520Z,1003.65
2018-12-04T09:14:16.510Z,1003.68
2018-12-04T09:15:16.497Z,1003.71
2018-12-04T09:16:16.484Z,1003.70
2018-12-04T09:17:16.476Z,1003.72
2018-12-04T09:18:16.533Z,1003.76
2018-12-04T09:19:16.497Z,1003.82
2018-12-04T09:20:16.478Z,1003.86
2018-12-04T09:21:16.495Z,1003.90
2018-12-04T09:22:16.451Z,1003.88
2018-12-04T09:23:16.412Z,1003.93
2018-12-04T09:24:16.482Z,1003.98
2018-12-04T09:25:16.404Z,1004.02
2018-12-04T09:26:16.394Z,1004.05
2018-12-04T09:27:16.390Z,1004.08
2018-12-04T09:28:16.401Z,1004.11
2018-12-04T09:29:16.417Z,1004.16
2018-12-04T09:30:16.357Z,1004.17
2018-12-04T09:31:16.323Z,1004.22
2018-12-04T09:32:16.332Z,1004.23
2018-12-04T09:33:16.299Z,1004.27
2018-12-04T09:34:16.288Z,1004.29
2018-12-04T09:35:16.291Z,1004.35
2018-12-04T09:36:16.265Z,1004.32
2018-12-04T09:37:16.256Z,1004.37
2018-12-04T09:38:16.247Z,1004.38
2018-12-04T09:39:16.231Z,1004.41
2018-12-04T09:40:16.221Z,1004.47
2018-12-04T09:41:16.210Z,1004.44
2018-12-04T09:42:16.200Z,1004.47
2018-12-04T09:43:16.188Z,1004.52
2018-12-04T09:44:16.180Z,1004.51
2018-12-04T09:45:16.173Z,1004.54
2018-12-04T09:46:16.157Z,1004.51
2018-12-04T09:47:16.784Z,1004.50
2018-12-04T09:48:16.137Z,1004.55
2018-12-04T09:49:16.127Z,1004.53
2018-12-04T09:50:16.113Z,1004.57
2018-12-04T09:51:16.103Z,1004.61
2018-12-04T09:52:16.089Z,1004.60
2018-12-04T09:53:16.080Z,1004.61
2018-12-04T09:54:16.074Z,1004.65
2018-12-04T09:55:16.058Z,1004.71
2018-12-04T09:56:16.046Z,1004.71
2018-12-04T09:57:16.046Z,1004.68
2018-12-04T09:58:16.025Z,1004.65
2018-12-04T09:59:16.086Z,1004.68
2018-12-04T10:00:16.002Z,1004.67
2018-12-04T10:01:15.995Z,1004.64
2018-12-04T10:02:15.982Z,1004.67
2018-12-04T10:03:15.971Z,1004.68
2018-12-04T10:04:15.962Z,1004.66
2018-12-04T10:05:15.949Z,1004.79
2018-12-04T10:06:15.938Z,1004.76
2018-12-04T10:07:15.929Z,1004.77
2018-12-04T10:08:15.916Z,1004.79
2018-12-04T10:09:15.905Z,1004.74
2018-12-04T10:10:15.894Z,1004.80
2018-12-04T10:11:15.884Z,1004.78
2018-12-04T10:12:15.875Z,1004.76
2018-12-04T10:13:15.861Z,1004.80
2018-12-04T10:14:15.850Z,1004.85
2018-12-04T10:15:15.837Z,1004.80
2018-12-04T10:16:15.828Z,1004.87
2018-12-04T10:17:15.818Z,1004.87
2018-12-04T10:18:15.805Z,1004.92
2018-12-04T10:19:15.795Z,1004.94
2018-12-04T10:20:15.789Z,1004.95
2018-12-04T10:21:15.772Z,1004.97
2018-12-04T10:22:15.761Z,1004.99
2018-12-04T10:23:15.752Z,1004.94
2018-12-04T10:24:15.739Z,1004.95
2018-12-04T10:25:15.729Z,1004.88
2018-12-04T10:26:15.718Z,1004.87
2018-12-04T10:27:15.714Z,1004.86
2018-12-04T10:28:15.697Z,1004.87
2018-12-04T10:29:15.683Z,1004.87
2018-12-04T10:30:15.674Z,1004.89
2018-12-04T10:31:15.663Z,1004.85
2018-12-04T10:32:15.655Z,1004.89
2018-12-04T10:33:15.649Z,1004.87
2018-12-04T10:34:15.628Z,1004.90
2018-12-04T10:35:15.621Z,1004.85
2018-12-04T10:36:15.610Z,1004.84
2018-12-04T10:37:15.603Z,1004.84
2018-12-04T10:38:15.588Z,1004.82
2018-12-04T10:39:15.575Z,1004.88
2018-12-04T10:40:15.565Z,1004.90
2018-12-04T10:41:15.557Z,1004.90
2018-12-04T10:42:15.542Z,1004.89
2018-12-04T10:43:15.531Z,1004.89
2018-12-04T10:44:15.522Z,1004.94
2018-12-04T10:45:15.509Z,1005.00
2018-12-04T10:46:15.500Z,1004.96
2018-12-04T10:47:15.491Z,1004.98
2018-12-04T10:48:15.478Z,1005.01
2018-12-04T10:49:15.466Z,1004.99
2018-12-04T10:50:15.453Z,1004.95
2018-12-04T10:51:15.444Z,1004.96
2018-12-04T10:52:15.433Z,1004.98
2018-12-04T10:53:15.423Z,1005.00
2018-12-04T10:54:15.415Z,1004.94
2018-12-04T10:55:15.401Z,1004.92
2018-12-04T10:56:15.388Z,1004.92
2018-12-04T10:57:15.379Z,1005.00
2018-12-04T10:58:15.369Z,1004.97
2018-12-04T10:59:15.356Z,1005.02
2018-12-04T11:00:15.348Z,1005.09
2018-12-04T11:01:15.337Z,1005.12
2018-12-04T11:02:15.324Z,1005.11
2018-12-04T11:03:15.312Z,1005.19
2018-12-04T11:04:15.302Z,1005.18
2018-12-04T11:05:15.294Z,1005.14
2018-12-04T11:06:15.280Z,1005.21
2018-12-04T11:07:15.269Z,1005.22
2018-12-04T11:08:15.260Z,1005.22
2018-12-04T11:09:15.247Z,1005.25
2018-12-04T11:10:15.237Z,1005.25
2018-12-04T11:11:15.226Z,1005.26
2018-12-04T11:12:15.214Z,1005.25
2018-12-04T11:13:15.207Z,1005.31
2018-12-04T11:14:15.194Z,1005.30
2018-12-04T11:15:15.182Z,1005.38
2018-12-04T11:16:15.171Z,1005.33
2018-12-04T11:17:15.159Z,1005.36
2018-12-04T11:18:15.147Z,1005.36
2018-12-04T11:19:15.137Z,1005.36
2018-12-04T11:20:15.127Z,1005.35
2018-12-04T11:21:15.123Z,1005.37
2018-12-04T11:22:15.108Z,1005.37
2018-12-04T11:23:15.094Z,1005.37
2018-12-04T11:24:15.085Z,1005.41
2018-12-04T11:25:15.072Z,1005.47
2018-12-04T11:26:15.064Z,1005.45
2018-12-04T11:27:15.050Z,1005.44
2018-12-04T11:28:15.047Z,1005.50
2018-12-04T11:29:15.027Z,1005.49
2018-12-04T11:30:15.019Z,1005.55
2018-12-04T11:31:15.007Z,1005.51
2018-12-04T11:32:14.999Z,1005.57
2018-12-04T11:33:14.983Z,1005.61
2018-12-04T11:34:14.975Z,1005.57
2018-12-04T11:35:14.964Z,1005.55
2018-12-04T11:36:14.953Z,1005.58
2018-12-04T11:37:14.940Z,1005.58
2018-12-04T11:38:14.930Z,1005.57
2018-12-04T11:39:14.917Z,1005.64
2018-12-04T11:40:14.908Z,1005.63
2018-12-04T11:41:14.898Z,1005.61
2018-12-04T11:42:14.885Z,1005.72
2018-12-04T11:43:14.876Z,1005.71
2018-12-04T11:44:14.865Z,1005.70
2018-12-04T11:45:14.854Z,1005.74
2018-12-04T11:46:14.842Z,1005.70
2018-12-04T11:47:14.831Z,1005.70
2018-12-04T11:48:14.823Z,1005.73
2018-12-04T11:49:14.810Z,1005.68
2018-12-04T11:50:14.799Z,1005.69
2018-12-04T11:51:14.789Z,1005.75
2018-12-04T11:52:14.776Z,1005.77
2018-12-04T11:54:14.757Z,1005.79
2018-12-04T11:55:14.745Z,1005.76
2018-12-04T11:56:14.735Z,1005.79
2018-12-04T11:57:14.722Z,1005.79
2018-12-04T11:58:14.714Z,1005.83
2018-12-04T11:59:14.702Z,1005.80
2018-12-04T12:00:14.690Z,1005.80
2018-12-04T12:01:14.678Z,1005.82
2018-12-04T12:02:14.668Z,1005.78
2018-12-04T12:03:14.655Z,1005.81
2018-12-04T12:04:14.644Z,1005.85
2018-12-04T12:05:14.636Z,1005.83
2018-12-04T12:06:14.625Z,1005.80
2018-12-04T12:07:20.410Z,1005.77
2018-12-04T12:08:35.783Z,1005.81
2018-12-04T12:09:35.771Z,1005.84
2018-12-04T12:10:35.763Z,1005.82
2018-12-04T12:11:35.752Z,1005.84
2018-12-04T12:12:35.741Z,1005.80
2018-12-04T12:13:35.729Z,1005.83
2018-12-04T12:14:35.719Z,1005.78
2018-12-04T12:15:35.708Z,1005.82
2018-12-04T12:16:35.696Z,1005.78
2018-12-04T12:17:35.687Z,1005.83
2018-12-04T12:18:35.675Z,1005.79
2018-12-04T12:19:35.663Z,1005.74
2018-12-04T12:20:35.654Z,1005.74
2018-12-04T12:21:35.643Z,1005.81
2018-12-04T12:22:35.631Z,1005.82
2018-12-04T12:23:35.621Z,1005.79